Time;durP1;ratioP1;P1;durP2;ratioP2;P2;SDS_P1;SDS_P2;PMS_P1;PMS_P2;Temp;Humidity;BMP_temperature;BMP_pressure;BME280_temperature;BME280_humidity;BME280_pressure;Samples;Min_cycle;Max_cycle;Signal;HPM_P1;HPM_P2
2022/06/20 00:00:29;;;;;;;15.73;7.80;;;24.80;73.50;;;;;;5005561;28;20427;-71
2022/06/20 00:02:58;;;;;;;17.27;7.95;;;24.70;73.90;;;;;;5010488;28;20498;-71
2022/06/20 00:05:27;;;;;;;15.10;6.95;;;24.60;73.80;;;;;;5010192;28;20018;-71
2022/06/20 00:07:53;;;;;;;15.98;7.70;;;24.60;73.50;;;;;;5010963;28;20038;-70
2022/06/20 00:10:21;;;;;;;16.58;8.40;;;24.50;73.30;;;;;;5014267;28;20028;-70
2022/06/20 00:12:47;;;;;;;15.05;8.02;;;24.50;73.60;;;;;;5012085;28;20064;-70
2022/06/20 00:15:34;;;;;;;23.00;8.30;;;24.40;74.00;;;;;;5013239;28;20037;-70
2022/06/20 00:18:02;;;;;;;18.40;8.40;;;24.40;73.70;;;;;;5028630;28;20114;-71
2022/06/20 00:20:29;;;;;;;16.08;6.93;;;24.40;74.10;;;;;;5025809;28;20088;-71
2022/06/20 00:22:55;;;;;;;14.77;7.70;;;24.30;74.20;;;;;;5006802;28;20030;-71
2022/06/20 00:25:21;;;;;;;17.40;6.95;;;24.30;74.30;;;;;;5008078;28;20061;-71
2022/06/20 00:27:48;;;;;;;13.82;7.72;;;24.30;74.30;;;;;;5027340;28;20057;-71
2022/06/20 00:30:16;;;;;;;15.27;7.47;;;24.30;74.20;;;;;;5010573;28;20096;-71
2022/06/20 00:32:42;;;;;;;15.80;7.15;;;24.30;74.00;;;;;;5031428;28;20091;-71
2022/06/20 00:35:09;;;;;;;14.02;7.20;;;24.20;74.10;;;;;;5013683;28;20434;-71
2022/06/20 00:37:35;;;;;;;18.40;7.38;;;24.20;73.90;;;;;;5006396;28;20041;-71
2022/06/20 00:40:01;;;;;;;13.00;7.25;;;24.20;73.50;;;;;;5005774;28;20035;-71
2022/06/20 00:42:27;;;;;;;14.63;7.65;;;24.20;73.30;;;;;;5010625;28;20109;-71
2022/06/20 00:45:05;;;;;;;15.55;7.75;;;24.20;73.00;;;;;;5011275;28;20026;-71
2022/06/20 00:47:34;;;;;;;17.50;7.90;;;24.20;72.60;;;;;;5015213;28;20030;-71
2022/06/20 00:50:06;;;;;;;17.10;7.43;;;24.20;72.70;;;;;;5011116;28;20026;-72
2022/06/20 00:52:44;;;;;;;14.60;7.53;;;24.10;72.80;;;;;;5004161;28;20615;-71
2022/06/20 00:55:19;;;;;;;14.02;7.55;;;24.10;73.20;;;;;;5007176;28;20030;-71
2022/06/20 00:58:24;;;;;;;14.55;7.95;;;24.00;73.30;;;;;;5007794;28;20026;-71
2022/06/20 01:00:50;;;;;;;15.70;7.68;;;24.00;73.40;;;;;;5009158;28;20092;-71
2022/06/20 01:03:21;;;;;;;19.50;7.80;;;24.00;73.60;;;;;;5010336;28;20503;-71
2022/06/20 01:06:02;;;;;;;16.00;7.65;;;23.90;73.50;;;;;;5006545;28;20028;-71
2022/06/20 01:08:32;;;;;;;20.05;8.73;;;23.90;73.50;;;;;;5026238;28;20022;-71
2022/06/20 01:11:03;;;;;;;15.52;7.95;;;23.80;73.60;;;;;;5011477;28;20046;-71
2022/06/20 01:13:29;;;;;;;17.92;8.32;;;23.80;73.80;;;;;;5020657;28;20051;-71
2022/06/20 01:16:00;;;;;;;19.17;8.25;;;23.80;74.00;;;;;;5005285;28;20030;-72
2022/06/20 01:18:31;;;;;;;19.63;7.93;;;23.80;74.20;;;;;;5001862;28;20037;-71
2022/06/20 01:20:59;;;;;;;14.50;8.13;;;23.70;74.20;;;;;;5010816;28;20081;-72
2022/06/20 01:23:37;;;;;;;17.45;8.32;;;23.70;74.70;;;;;;5016150;28;20056;-71
2022/06/20 01:26:30;;;;;;;18.65;7.55;;;23.60;74.80;;;;;;5005407;28;20426;-71
2022/06/20 01:29:00;;;;;;;22.67;8.27;;;23.60;74.90;;;;;;4998385;28;20114;-71
2022/06/20 01:31:31;;;;;;;15.02;7.22;;;23.60;74.80;;;;;;5009086;28;20033;-71
2022/06/20 01:34:00;;;;;;;17.10;7.60;;;23.60;74.80;;;;;;5013835;28;20029;-71
2022/06/20 01:39:16;;;;;;;17.08;7.53;;;23.50;74.60;;;;;;5005485;28;20093;-71
2022/06/20 01:44:31;;;;;;;14.13;7.70;;;23.50;75.10;;;;;;5010381;28;20042;-72
2022/06/20 01:46:57;;;;;;;23.52;8.60;;;23.40;75.20;;;;;;5007802;28;20014;-71
2022/06/20 01:49:24;;;;;;;17.33;7.72;;;23.40;75.40;;;;;;5007362;28;20406;-71
2022/06/20 01:52:03;;;;;;;19.30;7.63;;;23.30;75.40;;;;;;5006993;28;20057;-71
2022/06/20 01:54:34;;;;;;;15.27;6.18;;;23.30;75.50;;;;;;5026501;28;20037;-71
2022/06/20 01:57:02;;;;;;;21.38;7.43;;;23.20;75.70;;;;;;5013008;28;20164;-71
2022/06/20 01:59:35;;;;;;;16.08;7.35;;;23.20;75.60;;;;;;5007693;28;20116;-71
2022/06/20 02:02:02;;;;;;;17.00;7.22;;;23.20;75.60;;;;;;5006355;28;20413;-71
2022/06/20 02:04:33;;;;;;;14.80;7.43;;;23.20;75.60;;;;;;5009458;28;20395;-71
2022/06/20 02:07:01;;;;;;;17.45;7.13;;;23.20;76.20;;;;;;5010356;28;20026;-71
2022/06/20 02:09:28;;;;;;;14.35;7.65;;;23.10;76.50;;;;;;5006025;28;20041;-71
2022/06/20 02:11:54;;;;;;;13.40;7.47;;;23.10;76.40;;;;;;5002870;28;20038;-71
2022/06/20 02:14:33;;;;;;;14.43;7.05;;;23.10;76.10;;;;;;5009418;28;20040;-71
2022/06/20 02:17:04;;;;;;;17.55;7.32;;;23.10;75.90;;;;;;5010295;28;20045;-71
2022/06/20 02:19:34;;;;;;;14.30;7.75;;;23.10;75.90;;;;;;5006139;28;20379;-71
2022/06/20 02:22:04;;;;;;;19.30;6.80;;;23.00;76.00;;;;;;5011723;28;20022;-71
2022/06/20 02:24:35;;;;;;;15.25;7.78;;;23.00;76.20;;;;;;5011713;28;20025;-71
2022/06/20 02:27:03;;;;;;;14.68;6.47;;;23.10;76.30;;;;;;5005237;28;20113;-71
2022/06/20 02:29:30;;;;;;;13.73;7.43;;;23.00;76.20;;;;;;5008665;28;20123;-71
2022/06/20 02:32:19;;;;;;;15.40;7.30;;;23.00;76.30;;;;;;5007545;28;20085;-71
2022/06/20 02:34:45;;;;;;;14.98;7.18;;;23.00;76.20;;;;;;5009791;28;20471;-71
2022/06/20 02:37:17;;;;;;;14.40;7.00;;;23.00;76.20;;;;;;5002304;28;20173;-71
2022/06/20 02:39:44;;;;;;;19.55;8.27;;;23.00;76.30;;;;;;5008968;28;20124;-71
2022/06/20 02:42:16;;;;;;;16.10;7.25;;;23.00;75.80;;;;;;5003752;28;20423;-71
2022/06/20 02:44:47;;;;;;;15.80;7.28;;;23.10;75.90;;;;;;5024807;28;20023;-71
2022/06/20 02:47:14;;;;;;;15.70;7.53;;;23.10;75.50;;;;;;5009321;28;20025;-71
2022/06/20 02:49:41;;;;;;;18.23;8.15;;;23.10;75.30;;;;;;5005908;28;20037;-71
2022/06/20 02:52:13;;;;;;;13.43;6.68;;;23.10;75.70;;;;;;5003478;28;20113;-71
2022/06/20 02:54:40;;;;;;;13.13;7.18;;;23.10;75.50;;;;;;5005579;28;20114;-71
2022/06/20 02:57:15;;;;;;;14.32;7.35;;;23.10;75.50;;;;;;5005765;28;20521;-71
2022/06/20 02:59:48;;;;;;;20.40;8.30;;;23.20;76.60;;;;;;5011102;28;20041;-71
2022/06/20 03:02:17;;;;;;;16.90;8.73;;;23.20;77.40;;;;;;5009007;28;20076;-71
2022/06/20 03:04:44;;;;;;;16.90;8.32;;;23.20;78.80;;;;;;5004300;28;20034;-71
2022/06/20 03:07:17;;;;;;;19.23;8.63;;;23.10;79.40;;;;;;5008195;28;20026;-71
2022/06/20 03:09:45;;;;;;;16.02;8.20;;;23.10;79.50;;;;;;5007550;28;20065;-71
2022/06/20 03:12:12;;;;;;;17.90;9.25;;;23.10;79.70;;;;;;5011031;28;20026;-71
2022/06/20 03:14:52;;;;;;;18.17;9.77;;;23.10;79.60;;;;;;5004589;28;20544;-70
2022/06/20 03:17:20;;;;;;;24.48;9.18;;;23.00;79.70;;;;;;5004028;28;20037;-70
2022/06/20 03:19:49;;;;;;;23.23;8.43;;;23.00;80.00;;;;;;5010195;28;20105;-70
2022/06/20 03:22:19;;;;;;;13.68;8.55;;;23.00;79.90;;;;;;5011150;28;20026;-70
2022/06/20 03:24:47;;;;;;;17.40;8.93;;;23.00;79.80;;;;;;5004572;28;20091;-70
2022/06/20 03:27:25;;;;;;;20.75;9.07;;;23.00;79.90;;;;;;5013198;28;20030;-70
2022/06/20 03:29:56;;;;;;;21.33;8.65;;;23.00;80.00;;;;;;5006719;28;20459;-71
2022/06/20 03:32:25;;;;;;;19.35;8.40;;;23.00;79.90;;;;;;5005532;28;20038;-71
2022/06/20 03:34:53;;;;;;;13.70;7.63;;;23.00;79.50;;;;;;5015459;28;20471;-71
2022/06/20 03:37:18;;;;;;;14.55;7.95;;;23.00;79.30;;;;;;5011856;28;20743;-71
2022/06/20 03:39:47;;;;;;;17.33;8.63;;;23.00;78.90;;;;;;5013540;28;20022;-71
2022/06/20 03:42:13;;;;;;;20.30;7.93;;;23.00;79.00;;;;;;5011837;28;20475;-71
2022/06/20 03:44:51;;;;;;;13.95;7.88;;;23.00;79.10;;;;;;5015823;28;20017;-71
2022/06/20 03:47:33;;;;;;;16.55;8.38;;;23.00;79.10;;;;;;5014653;28;20405;-71
2022/06/20 03:49:59;;;;;;;13.65;7.50;;;23.00;79.30;;;;;;5011499;28;20068;-71
2022/06/20 03:52:30;;;;;;;18.73;8.43;;;23.00;79.30;;;;;;5012136;28;20426;-71
2022/06/20 03:55:09;;;;;;;17.60;7.95;;;23.00;79.30;;;;;;5013797;28;20045;-71
2022/06/20 03:57:38;;;;;;;14.50;7.90;;;23.00;79.20;;;;;;5014818;28;20026;-72
2022/06/20 04:00:11;;;;;;;11.80;7.60;;;23.00;79.10;;;;;;5015512;28;20053;-71
2022/06/20 04:02:45;;;;;;;19.27;7.47;;;23.00;78.90;;;;;;5031321;28;20038;-71
2022/06/20 04:05:22;;;;;;;14.55;7.50;;;23.00;78.80;;;;;;5024112;28;20044;-71
2022/06/20 04:07:52;;;;;;;17.20;7.50;;;23.00;78.70;;;;;;5008188;28;20384;-71
2022/06/20 04:13:42;;;;;;;15.57;6.80;;;23.10;78.20;;;;;;5011499;28;20044;-70
2022/06/20 04:16:20;;;;;;;12.50;7.30;;;23.10;78.60;;;;;;5009845;28;20042;-71
2022/06/20 04:19:06;;;;;;;17.05;8.20;;;23.10;78.30;;;;;;5007415;28;20026;-71
2022/06/20 04:21:52;;;;;;;22.35;9.10;;;23.20;78.70;;;;;;5012272;28;20033;-71
2022/06/20 04:24:31;;;;;;;20.75;9.18;;;23.20;83.00;;;;;;5000356;28;20048;-71
2022/06/20 04:26:57;;;;;;;20.27;10.60;;;23.30;83.80;;;;;;5002094;28;20407;-71
2022/06/20 04:29:44;;;;;;;20.27;10.13;;;23.30;88.60;;;;;;5029030;23;20482;-73
2022/06/20 04:32:35;;;;;;;27.50;11.65;;;23.20;87.80;;;;;;5008804;28;20022;-74
2022/06/20 04:35:17;;;;;;;20.95;10.05;;;23.10;88.20;;;;;;5008253;28;20034;-74
2022/06/20 04:38:04;;;;;;;20.98;10.93;;;22.80;88.90;;;;;;4996946;28;20041;-74
2022/06/20 04:40:46;;;;;;;19.17;10.00;;;22.60;91.40;;;;;;4985661;28;20026;-75
2022/06/20 04:43:23;;;;;;;17.17;9.93;;;22.50;91.00;;;;;;4990171;28;20043;-75
2022/06/20 04:46:06;;;;;;;23.63;9.95;;;22.40;91.60;;;;;;4988418;28;20018;-75
2022/06/20 04:48:32;;;;;;;20.17;9.80;;;22.20;93.20;;;;;;4987007;28;20129;-73
2022/06/20 04:51:01;;;;;;;21.67;9.73;;;22.30;93.30;;;;;;4988317;28;20113;-73
2022/06/20 04:53:35;;;;;;;19.98;9.80;;;22.20;93.10;;;;;;4982207;28;20030;-73
2022/06/20 04:56:05;;;;;;;22.05;10.52;;;22.20;94.80;;;;;;4982982;28;20034;-72
2022/06/20 04:58:43;;;;;;;24.02;10.75;;;22.10;95.90;;;;;;4987165;28;20121;-74
2022/06/20 05:01:09;;;;;;;22.17;9.90;;;22.10;96.90;;;;;;4984863;28;20052;-74
2022/06/20 05:03:44;;;;;;;27.33;9.73;;;22.10;97.90;;;;;;4990754;28;20113;-74
2022/06/20 05:06:17;;;;;;;17.58;10.02;;;22.10;98.30;;;;;;5004760;28;20057;-74
2022/06/20 05:08:48;;;;;;;20.30;10.18;;;22.10;98.40;;;;;;4990154;28;20069;-73
2022/06/20 05:11:32;;;;;;;17.88;9.15;;;22.10;98.40;;;;;;4991794;28;20145;-73
2022/06/20 05:14:04;;;;;;;;;;;22.10;98.40;;;;;;4988247;28;20041;-73
2022/06/20 05:16:33;;;;;;;14.98;8.68;;;22.00;99.20;;;;;;4984472;28;19916;-73
2022/06/20 05:19:07;;;;;;;19.77;9.10;;;22.10;99.30;;;;;;4988619;28;20392;-74
2022/06/20 05:21:43;;;;;;;17.55;9.20;;;22.10;99.90;;;;;;4988239;28;20038;-72
2022/06/20 05:24:19;;;;;;;20.23;9.65;;;22.20;99.90;;;;;;4989385;28;20038;-72
2022/06/20 05:26:48;;;;;;;18.27;8.88;;;22.20;99.90;;;;;;4987636;28;20019;-74
2022/06/20 05:29:24;;;;;;;20.17;8.68;;;22.30;99.90;;;;;;4989168;28;20026;-74
2022/06/20 05:31:54;;;;;;;19.10;7.63;;;22.30;99.90;;;;;;4982231;28;20112;-74
2022/06/20 05:34:44;;;;;;;15.93;7.43;;;22.30;99.90;;;;;;4983952;28;20048;-74
2022/06/20 05:37:19;;;;;;;14.40;7.85;;;22.40;99.90;;;;;;4988892;28;20042;-74
2022/06/20 05:39:54;;;;;;;22.05;9.30;;;22.40;99.90;;;;;;4987593;28;20076;-73
2022/06/20 05:42:20;;;;;;;20.05;8.80;;;22.50;99.90;;;;;;4987931;28;20435;-74
2022/06/20 05:44:46;;;;;;;14.82;7.55;;;22.50;99.90;;;;;;4989101;28;20117;-68
2022/06/20 05:47:28;;;;;;;11.82;7.68;;;22.50;99.90;;;;;;4994349;28;20037;-68
2022/06/20 05:50:02;;;;;;;17.02;8.27;;;22.60;99.90;;;;;;4988697;28;20026;-68
2022/06/20 05:52:30;;;;;;;14.20;8.15;;;22.60;99.90;;;;;;4983401;28;20408;-72
2022/06/20 05:55:05;;;;;;;14.60;7.40;;;22.70;99.90;;;;;;4994183;28;20589;-68
2022/06/20 05:57:33;;;;;;;13.55;7.63;;;22.80;99.90;;;;;;4990700;28;20026;-77
2022/06/20 06:00:16;;;;;;;17.05;7.65;;;22.70;99.90;;;;;;4988654;28;20041;-77
2022/06/20 06:03:17;;;;;;;12.45;7.38;;;22.70;99.90;;;;;;4987365;28;20153;-77
2022/06/20 06:05:52;;;;;;;13.07;7.78;;;22.70;99.90;;;;;;4918956;29;20047;-77
2022/06/20 06:08:35;;;;;;;15.63;7.68;;;22.80;99.90;;;;;;4978975;28;20162;-77
2022/06/20 06:11:03;;;;;;;16.57;7.63;;;22.80;99.90;;;;;;4991599;28;20410;-73
2022/06/20 06:13:47;;;;;;;14.25;7.97;;;22.80;99.90;;;;;;4988374;28;20061;-73
2022/06/20 06:16:48;;;;;;;16.80;8.15;;;22.90;99.90;;;;;;5005300;28;20132;-73
2022/06/20 06:19:30;;;;;;;13.68;7.68;;;23.00;99.90;;;;;;4985056;28;20037;-71
2022/06/20 06:22:03;;;;;;;20.83;8.20;;;23.10;99.90;;;;;;4983247;28;20031;-71
2022/06/20 06:24:30;;;;;;;13.40;7.47;;;23.10;99.90;;;;;;4984879;28;20038;-72
2022/06/20 06:26:58;;;;;;;18.80;8.32;;;23.10;99.90;;;;;;4987713;28;20084;-71
2022/06/20 06:29:42;;;;;;;11.95;7.82;;;23.10;99.90;;;;;;4987465;28;20517;-71
2022/06/20 06:32:19;;;;;;;14.00;7.50;;;23.10;99.90;;;;;;4983008;28;20442;-71
2022/06/20 06:34:50;;;;;;;13.05;7.50;;;23.20;99.90;;;;;;4984163;28;20031;-72
2022/06/20 06:37:34;;;;;;;15.07;7.45;;;23.30;99.90;;;;;;4984305;28;20036;-72
2022/06/20 06:40:10;;;;;;;12.27;6.90;;;23.20;99.90;;;;;;4988432;28;20026;-72
2022/06/20 06:42:40;;;;;;;16.70;8.05;;;23.30;99.90;;;;;;4983596;28;20509;-72
2022/06/20 06:45:07;;;;;;;16.45;8.18;;;23.20;99.90;;;;;;4987558;28;20537;-72
2022/06/20 06:47:45;;;;;;;13.45;7.20;;;23.30;99.90;;;;;;4986420;28;20483;-71
2022/06/20 06:50:33;;;;;;;10.50;7.18;;;23.30;99.90;;;;;;4983423;28;20363;-71
2022/06/20 06:53:05;;;;;;;12.75;7.38;;;23.40;99.90;;;;;;4985572;28;20038;-71
2022/06/20 06:55:38;;;;;;;13.63;7.50;;;23.40;99.90;;;;;;4991000;28;20027;-71
2022/06/20 06:58:18;;;;;;;12.25;7.38;;;23.30;99.90;;;;;;4987906;28;20037;-71
2022/06/20 07:00:59;;;;;;;10.95;7.00;;;23.50;99.90;;;;;;4988119;28;20038;-71
2022/06/20 07:03:27;;;;;;;14.15;7.35;;;23.50;99.90;;;;;;4989368;28;20395;-71
2022/06/20 07:06:03;;;;;;;16.02;8.02;;;23.50;99.90;;;;;;4986243;28;20026;-71
2022/06/20 07:08:36;;;;;;;13.80;7.15;;;23.60;99.90;;;;;;4988883;28;20034;-71
2022/06/20 07:11:06;;;;;;;11.05;6.28;;;23.70;99.90;;;;;;4981290;28;20065;-71
2022/06/20 07:13:55;;;;;;;12.02;6.57;;;23.90;99.90;;;;;;4990731;28;20451;-71
2022/06/20 07:16:51;;;;;;;13.77;5.30;;;24.00;99.90;;;;;;4992554;28;20034;-71
2022/06/20 07:19:18;;;;;;;16.08;6.05;;;24.10;99.90;;;;;;4991859;28;20383;-72
2022/06/20 07:21:44;;;;;;;19.65;6.30;;;24.30;99.90;;;;;;4991576;28;20060;-73
2022/06/20 07:24:17;;;;;;;14.57;5.43;;;24.30;99.90;;;;;;4988624;28;20396;-72
2022/06/20 07:26:57;;;;;;;16.02;6.95;;;24.50;99.10;;;;;;4988889;28;20026;-72
2022/06/20 07:29:28;;;;;;;12.05;7.10;;;24.70;98.00;;;;;;4986288;28;20030;-67
2022/06/20 07:31:59;;;;;;;11.73;6.30;;;24.80;98.40;;;;;;4981336;28;20091;-71
2022/06/20 07:34:53;;;;;;;12.82;7.13;;;24.90;98.30;;;;;;4985070;28;20081;-71
2022/06/20 07:37:24;;;;;;;10.20;6.30;;;25.00;97.70;;;;;;4985306;28;20495;-67
2022/06/20 07:39:58;;;;;;;13.77;6.40;;;25.10;97.10;;;;;;4989972;28;20035;-70
2022/06/20 07:42:38;;;;;;;17.60;6.22;;;25.20;96.60;;;;;;4989595;28;20025;-71
2022/06/20 07:45:20;;;;;;;11.95;6.97;;;25.30;96.80;;;;;;4988202;28;20041;-69
2022/06/20 07:47:55;;;;;;;8.63;5.60;;;25.30;96.00;;;;;;4989194;28;20029;-72
2022/06/20 07:50:42;;;;;;;12.65;5.70;;;25.30;95.60;;;;;;4988407;28;20034;-72
2022/06/20 07:53:21;;;;;;;9.93;5.55;;;25.40;96.00;;;;;;4984597;28;20499;-72
2022/06/20 07:55:52;;;;;;;6.80;4.68;;;25.40;95.30;;;;;;5003288;28;20022;-72
2022/06/20 07:58:35;;;;;;;10.50;5.40;;;25.50;94.70;;;;;;4985821;28;20531;-73
2022/06/20 08:01:09;;;;;;;6.60;5.17;;;25.50;93.90;;;;;;4988085;28;20037;-72
2022/06/20 08:03:40;;;;;;;10.02;5.25;;;25.60;93.50;;;;;;4983867;28;20022;-72
2022/06/20 08:06:21;;;;;;;9.73;5.03;;;25.60;93.10;;;;;;4989102;28;20026;-72
2022/06/20 08:08:52;;;;;;;8.63;4.70;;;25.70;91.90;;;;;;4988910;28;20022;-72
2022/06/20 08:11:50;;;;;;;8.85;4.82;;;25.80;90.70;;;;;;4992146;28;20026;-72
2022/06/20 08:14:29;;;;;;;6.45;5.03;;;25.90;88.80;;;;;;4987324;28;20046;-72
2022/06/20 08:16:59;;;;;;;9.15;4.50;;;26.10;86.70;;;;;;4986702;28;20035;-73
2022/06/20 08:19:25;;;;;;;9.98;5.50;;;26.20;85.70;;;;;;4984029;28;20525;-73
2022/06/20 08:22:01;;;;;;;4.70;4.13;;;26.30;85.30;;;;;;4990771;28;20042;-72
2022/06/20 08:24:41;;;;;;;8.20;4.55;;;26.40;82.70;;;;;;4986800;28;20080;-72
2022/06/20 08:27:10;;;;;;;10.65;5.20;;;26.50;82.60;;;;;;4988983;28;20034;-72
2022/06/20 08:29:51;;;;;;;11.30;4.38;;;26.60;81.10;;;;;;4983906;28;20487;-72
2022/06/20 08:32:25;;;;;;;8.80;4.50;;;26.80;82.10;;;;;;4998684;28;20023;-73
2022/06/20 08:34:56;;;;;;;;;;;26.90;80.80;;;;;;4987136;28;20030;-71
2022/06/20 08:37:29;;;;;;;6.35;4.00;;;27.00;79.40;;;;;;4988779;28;19910;-72
2022/06/20 08:40:41;;;;;;;9.15;4.20;;;27.10;79.10;;;;;;4986796;28;20105;-72
2022/06/20 08:43:33;;;;;;;8.52;4.10;;;27.20;77.60;;;;;;4987992;28;20538;-71
2022/06/20 08:46:36;;;;;;;7.72;4.70;;;27.30;77.80;;;;;;4983390;28;20035;-72
2022/06/20 08:49:10;;;;;;;9.15;4.18;;;27.30;76.70;;;;;;4988052;28;20030;-72
2022/06/20 08:52:07;;;;;;;7.22;3.42;;;27.30;76.10;;;;;;4985255;28;20995;-72
2022/06/20 08:54:35;;;;;;;12.80;4.90;;;27.30;75.70;;;;;;4992423;28;20075;-72
2022/06/20 08:57:22;;;;;;;6.97;4.65;;;27.40;76.40;;;;;;5001042;28;20166;-73
2022/06/20 08:59:53;;;;;;;6.57;4.32;;;27.50;75.70;;;;;;4987681;28;20030;-72
2022/06/20 09:02:25;;;;;;;7.32;4.65;;;27.50;76.10;;;;;;4988034;28;20200;-71
2022/06/20 09:04:59;;;;;;;9.82;5.22;;;27.70;76.20;;;;;;4983748;28;20027;-70
2022/06/20 09:08:05;;;;;;;7.25;4.55;;;27.80;77.00;;;;;;4986938;28;20034;-73
2022/06/20 09:11:00;;;;;;;7.60;5.03;;;27.90;75.70;;;;;;4983509;28;20049;-73
2022/06/20 09:13:42;;;;;;;7.53;4.97;;;27.90;74.80;;;;;;4989208;28;20027;-71
2022/06/20 09:16:23;;;;;;;8.45;4.18;;;28.00;75.70;;;;;;4978019;28;20023;-74
2022/06/20 09:19:16;;;;;;;11.57;4.50;;;28.10;72.80;;;;;;4988536;28;20038;-72
2022/06/20 09:22:03;;;;;;;6.60;3.92;;;28.20;71.00;;;;;;4984905;28;20101;-71
2022/06/20 09:24:29;;;;;;;8.73;4.75;;;28.20;70.40;;;;;;4987893;28;20411;-72
2022/06/20 09:27:17;;;;;;;8.23;4.93;;;28.30;71.30;;;;;;4983260;28;20081;-74
2022/06/20 09:30:00;;;;;;;8.45;4.10;;;28.30;69.40;;;;;;4982063;28;20061;-74
2022/06/20 09:32:28;;;;;;;8.93;4.53;;;28.40;70.00;;;;;;4984402;28;20040;-75
2022/06/20 09:35:13;;;;;;;8.25;4.30;;;28.40;70.10;;;;;;4987265;28;20456;-73
2022/06/20 09:37:53;;;;;;;7.15;4.15;;;28.50;69.90;;;;;;4985440;28;20033;-74
2022/06/20 09:40:22;;;;;;;6.45;4.55;;;28.50;69.40;;;;;;4986644;28;20027;-74
2022/06/20 09:43:14;;;;;;;9.40;4.85;;;28.60;69.40;;;;;;4982316;28;20402;-75
2022/06/20 09:46:15;;;;;;;5.57;4.20;;;28.60;68.80;;;;;;4984060;28;20101;-76
2022/06/20 09:49:12;;;;;;;9.35;4.38;;;28.60;69.40;;;;;;4986386;28;20023;-76
2022/06/20 09:51:56;;;;;;;8.07;4.75;;;28.70;69.20;;;;;;4983522;28;20026;-75
2022/06/20 09:54:47;;;;;;;8.30;4.60;;;28.80;69.70;;;;;;4981597;28;20618;-75
2022/06/20 09:57:35;;;;;;;10.05;4.60;;;28.80;69.00;;;;;;4984905;28;20105;-74
2022/06/20 10:00:15;;;;;;;7.60;4.53;;;28.90;68.30;;;;;;4988121;28;20058;-75
2022/06/20 10:02:55;;;;;;;7.85;4.65;;;28.90;68.30;;;;;;5003095;28;20073;-75
2022/06/20 10:05:49;;;;;;;7.40;4.50;;;28.90;67.80;;;;;;4987523;28;20460;-77
2022/06/20 10:08:27;;;;;;;7.97;4.70;;;28.90;68.20;;;;;;4989121;28;20026;-74
2022/06/20 10:11:19;;;;;;;7.57;4.43;;;29.00;68.20;;;;;;4986728;28;20034;-75
2022/06/20 10:14:15;;;;;;;10.43;4.50;;;29.10;68.30;;;;;;4982437;28;20034;-74
2022/06/20 10:17:08;;;;;;;7.47;4.40;;;29.20;68.10;;;;;;4985978;28;20030;-78
2022/06/20 10:19:53;;;;;;;8.25;4.35;;;29.40;67.50;;;;;;4990293;28;20097;-75
2022/06/20 10:22:37;;;;;;;7.22;4.82;;;29.40;67.90;;;;;;4987886;28;20030;-75
2022/06/20 10:25:31;;;;;;;8.77;4.72;;;29.50;67.10;;;;;;4979118;28;20090;-74
2022/06/20 10:28:21;;;;;;;6.75;3.95;;;29.50;66.60;;;;;;4999813;23;20053;-71
2022/06/20 10:30:47;;;;;;;9.43;4.75;;;29.50;66.40;;;;;;4999356;28;20037;-72
2022/06/20 10:33:30;;;;;;;7.45;4.50;;;29.40;66.20;;;;;;4997236;28;20105;-72
2022/06/20 10:36:09;;;;;;;7.72;4.32;;;29.40;66.10;;;;;;4999540;28;20049;-71
2022/06/20 10:38:42;;;;;;;7.50;4.28;;;29.40;65.70;;;;;;4997918;28;20030;-72
2022/06/20 10:41:37;;;;;;;8.48;4.30;;;29.40;66.60;;;;;;5022615;28;20552;-72
2022/06/20 10:44:06;;;;;;;10.73;4.30;;;29.40;66.20;;;;;;4995170;28;20022;-72
2022/06/20 10:46:56;;;;;;;6.97;4.07;;;29.60;65.60;;;;;;4994488;28;20029;-73
2022/06/20 10:50:03;;;;;;;7.50;4.07;;;29.60;64.90;;;;;;5005308;28;20482;-72
2022/06/20 10:52:38;;;;;;;11.57;4.80;;;29.60;64.50;;;;;;5007784;28;20532;-73
2022/06/20 10:55:16;;;;;;;7.55;4.25;;;29.40;64.20;;;;;;5007476;28;20030;-73
2022/06/20 10:57:56;;;;;;;14.27;4.50;;;29.40;64.70;;;;;;5004659;28;20049;-74
2022/06/20 11:00:26;;;;;;;7.30;4.43;;;29.30;64.50;;;;;;5004442;28;20038;-74
2022/06/20 11:03:25;;;;;;;5.88;4.38;;;29.40;64.80;;;;;;5004816;28;20026;-73
2022/06/20 11:06:07;;;;;;;9.50;4.30;;;29.50;64.80;;;;;;5002879;28;20028;-73
2022/06/20 11:08:42;;;;;;;9.00;4.10;;;29.50;63.80;;;;;;4999767;28;20072;-72
2022/06/20 11:11:26;;;;;;;7.97;4.30;;;29.60;64.50;;;;;;5005145;28;20026;-73
2022/06/20 11:14:11;;;;;;;7.63;4.13;;;29.60;64.00;;;;;;5005309;28;20698;-73
2022/06/20 11:16:43;;;;;;;6.40;3.85;;;29.60;64.00;;;;;;5007082;28;20025;-72
2022/06/20 11:19:38;;;;;;;6.03;3.75;;;29.60;63.70;;;;;;5018860;28;20058;-73
2022/06/20 11:22:24;;;;;;;7.63;3.83;;;29.70;63.00;;;;;;5008863;28;20030;-73
2022/06/20 11:24:53;;;;;;;6.07;3.90;;;29.70;62.40;;;;;;5000377;28;20085;-73
2022/06/20 11:27:43;;;;;;;5.47;3.80;;;29.80;62.50;;;;;;5005437;28;20029;-73
2022/06/20 11:30:24;;;;;;;5.47;3.38;;;29.90;61.90;;;;;;5003107;28;20494;-74
2022/06/20 11:33:02;;;;;;;9.70;3.85;;;30.00;61.60;;;;;;5002581;28;20029;-73
2022/06/20 11:35:49;;;;;;;6.90;3.70;;;30.10;60.70;;;;;;5001042;28;20030;-73
2022/06/20 11:38:44;;;;;;;9.82;4.53;;;30.20;60.90;;;;;;4998395;28;20025;-74
2022/06/20 11:41:21;;;;;;;6.82;2.70;;;30.20;60.70;;;;;;4955765;28;20039;-75
2022/06/20 11:44:09;;;;;;;4.75;3.60;;;30.20;60.80;;;;;;5006573;28;20134;-72
2022/06/20 11:46:37;;;;;;;5.53;3.30;;;30.10;60.70;;;;;;5005555;28;20033;-73
2022/06/20 11:49:31;;;;;;;8.10;3.47;;;30.00;60.50;;;;;;5009022;28;20026;-73
2022/06/20 11:52:03;;;;;;;5.28;3.47;;;30.00;61.00;;;;;;5008231;28;20062;-74
2022/06/20 11:55:04;;;;;;;6.43;3.53;;;29.80;61.40;;;;;;5008191;28;21216;-72
2022/06/20 11:57:32;;;;;;;5.70;3.25;;;29.80;62.00;;;;;;4983178;28;20282;-73
2022/06/20 12:00:03;;;;;;;7.50;3.33;;;29.70;61.90;;;;;;5003919;28;22268;-73
2022/06/20 12:02:47;;;;;;;7.63;3.67;;;29.70;62.20;;;;;;5001186;28;20061;-73
2022/06/20 12:05:25;;;;;;;5.18;3.90;;;29.70;62.50;;;;;;5000845;28;20025;-72
2022/06/20 12:07:50;;;;;;;6.78;3.70;;;29.60;62.40;;;;;;4999433;28;20056;-73
2022/06/20 12:10:26;;;;;;;15.25;3.72;;;29.50;62.30;;;;;;5005732;28;20049;-72
2022/06/20 12:13:00;;;;;;;6.68;3.80;;;29.40;62.20;;;;;;5006841;28;20026;-73
2022/06/20 12:15:48;;;;;;;5.38;3.50;;;29.40;62.70;;;;;;5008153;28;20034;-73
2022/06/20 12:18:19;;;;;;;6.50;3.50;;;29.30;63.10;;;;;;5003457;28;20021;-74
2022/06/20 12:23:48;;;;;;;8.38;3.30;;;29.40;63.50;;;;;;5003422;28;20626;-75
2022/06/20 12:26:31;;;;;;;6.30;3.00;;;29.30;64.20;;;;;;5002187;28;20068;-74
2022/06/20 12:29:00;;;;;;;7.00;2.70;;;29.10;64.00;;;;;;5003538;28;20057;-72
2022/06/20 12:31:35;;;;;;;5.30;3.03;;;28.80;64.70;;;;;;5005137;28;20037;-74
2022/06/20 12:34:27;;;;;;;5.05;2.78;;;28.70;65.60;;;;;;5003168;28;20038;-74
2022/06/20 12:37:21;;;;;;;6.15;2.97;;;28.40;65.70;;;;;;5004374;28;20030;-74
2022/06/20 12:39:51;;;;;;;4.10;2.88;;;28.20;66.50;;;;;;4985654;28;20041;-72
2022/06/20 12:42:26;;;;;;;9.13;2.47;;;28.00;67.00;;;;;;5004284;28;20037;-73
2022/06/20 12:45:32;;;;;;;7.57;3.22;;;27.90;67.80;;;;;;5004461;28;20022;-72
2022/06/20 12:48:04;;;;;;;3.83;2.78;;;27.90;68.00;;;;;;5005900;28;20029;-72
2022/06/20 12:50:38;;;;;;;6.80;3.05;;;27.90;68.30;;;;;;5001395;28;20041;-72
2022/06/20 12:53:10;;;;;;;5.50;3.05;;;27.90;68.10;;;;;;5000826;28;20098;-71
2022/06/20 12:55:41;;;;;;;6.35;2.58;;;27.90;68.40;;;;;;5002413;28;20022;-72
2022/06/20 12:58:22;;;;;;;5.55;2.17;;;27.90;68.70;;;;;;5015348;28;20033;-73
2022/06/20 13:01:16;;;;;;;6.68;3.00;;;27.70;68.00;;;;;;5017393;28;20030;-72
2022/06/20 13:03:49;;;;;;;;;;;27.60;68.30;;;;;;4995731;28;20046;-73
2022/06/20 13:06:26;;;;;;;7.65;2.75;;;27.70;68.60;;;;;;5003848;28;19913;-74
2022/06/20 13:09:29;;;;;;;6.68;3.05;;;27.60;68.50;;;;;;4991517;28;20022;-72
2022/06/20 13:12:12;;;;;;;6.25;2.58;;;27.60;68.50;;;;;;4985239;28;20034;-73
2022/06/20 13:15:03;;;;;;;7.53;3.00;;;27.60;68.80;;;;;;4982098;28;20068;-73
2022/06/20 13:17:52;;;;;;;4.57;2.80;;;27.70;67.80;;;;;;4998290;28;20030;-73
2022/06/20 13:20:32;;;;;;;3.55;2.58;;;27.80;68.00;;;;;;5003651;28;20040;-73
2022/06/20 13:23:16;;;;;;;5.20;2.92;;;27.70;68.40;;;;;;5001988;28;20030;-73
2022/06/20 13:25:47;;;;;;;;;;;27.70;68.80;;;;;;5004984;28;20026;-74
2022/06/20 13:28:52;;;;;;;8.65;2.75;;;27.70;68.80;;;;;;5001682;28;19917;-71
2022/06/20 13:31:26;;;;;;;5.43;3.00;;;27.70;68.70;;;;;;4992995;28;20489;-74
2022/06/20 13:34:01;;;;;;;3.83;2.35;;;27.70;68.70;;;;;;5004860;28;20026;-72
2022/06/20 13:36:29;;;;;;;4.03;2.53;;;27.70;68.60;;;;;;5003994;28;20080;-73
2022/06/20 13:38:58;;;;;;;5.50;2.50;;;27.50;69.10;;;;;;5001126;28;20041;-73
2022/06/20 13:41:38;;;;;;;9.13;2.80;;;27.30;69.70;;;;;;5002865;28;20490;-72